Time;durP1;ratioP1;P1;durP2;ratioP2;P2;SDS_P1;SDS_P2;PMS_P1;PMS_P2;Temp;Humidity;BMP_temperature;BMP_pressure;BME280_temperature;BME280_humidity;BME280_pressure;Samples;Min_cycle;Max_cycle;Signal;HPM_P1;HPM_P2
2022/01/12 00:01:59;;;;;;;;;60.50;48.50;;;;;3.85;100.00;102902.66;4887785;29;45704;-82
2022/01/12 00:04:24;;;;;;;;;63.25;51.25;;;;;3.76;100.00;102906.44;4889298;29;45710;-82
2022/01/12 00:06:50;;;;;;;;;66.75;54.50;;;;;3.73;100.00;102908.81;4888703;29;45881;-82
2022/01/12 00:09:15;;;;;;;;;65.50;53.25;;;;;3.72;100.00;102904.38;4889285;29;45931;-83
2022/01/12 00:11:42;;;;;;;;;65.75;51.50;;;;;3.70;100.00;102899.78;4888149;29;45733;-82
2022/01/12 00:14:08;;;;;;;;;67.25;51.00;;;;;3.65;100.00;102904.69;4890481;29;45567;-82
2022/01/12 00:16:34;;;;;;;;;66.75;53.50;;;;;3.62;100.00;102891.31;4888579;29;45441;-82
2022/01/12 00:19:00;;;;;;;;;70.50;52.00;;;;;3.68;100.00;102907.56;4887092;29;45891;-82
2022/01/12 00:21:28;;;;;;;;;65.25;50.50;;;;;3.67;100.00;102897.81;4888056;29;45773;-82
2022/01/12 00:23:54;;;;;;;;;64.50;53.50;;;;;3.65;100.00;102899.41;4889339;29;44864;-82
2022/01/12 00:26:39;;;;;;;;;62.25;49.00;;;;;3.62;100.00;102899.19;4888902;29;46277;-82
2022/01/12 00:34:33;;;;;;;;;67.50;53.00;;;;;3.51;100.00;102900.06;4876174;29;45428;-83
2022/01/12 00:36:58;;;;;;;;;75.00;58.25;;;;;3.57;100.00;102909.34;4890627;29;45388;-83
2022/01/12 00:39:27;;;;;;;;;64.50;53.25;;;;;3.51;100.00;102907.97;4888769;29;45371;-82
2022/01/12 00:41:52;;;;;;;;;73.00;55.25;;;;;3.48;100.00;102913.91;4892117;29;45897;-83
2022/01/12 00:44:31;;;;;;;;;69.75;52.00;;;;;3.47;100.00;102921.69;4877107;29;45723;-81
2022/01/12 00:46:57;;;;;;;;;62.25;47.75;;;;;3.47;100.00;102924.31;4871313;29;45791;-82
2022/01/12 00:49:24;;;;;;;;;73.00;56.25;;;;;3.53;100.00;102930.03;4872548;29;45478;-82
2022/01/12 00:51:54;;;;;;;;;67.00;56.25;;;;;3.47;100.00;102924.31;4854045;29;45538;-83
2022/01/12 00:54:20;;;;;;;;;70.50;54.75;;;;;3.62;100.00;102937.75;4870559;29;45567;-82
2022/01/12 00:56:45;;;;;;;;;72.25;57.00;;;;;3.71;100.00;102942.00;4870256;29;45371;-82
2022/01/12 00:59:11;;;;;;;;;60.50;49.00;;;;;3.78;100.00;102949.56;4869918;29;45504;-83
2022/01/12 01:01:36;;;;;;;;;67.00;52.25;;;;;3.88;100.00;102945.00;4869926;29;45424;-83
2022/01/12 01:04:02;;;;;;;;;71.75;56.25;;;;;3.95;100.00;102947.31;4870834;29;45424;-83
2022/01/12 01:06:36;;;;;;;;;63.75;46.75;;;;;4.10;100.00;102959.03;4852457;29;47256;-83
2022/01/12 01:09:04;;;;;;;;;68.25;52.00;;;;;4.13;100.00;102959.25;4868647;29;45483;-83
2022/01/12 01:11:31;;;;;;;;;66.00;51.50;;;;;4.18;100.00;102957.88;4852280;29;46085;-83
2022/01/12 01:13:59;;;;;;;;;67.25;50.25;;;;;4.19;100.00;102957.06;4853004;29;45647;-83
2022/01/12 01:16:46;;;;;;;;;68.25;52.25;;;;;4.28;100.00;102958.56;4869493;29;46744;-83
2022/01/12 01:27:27;;;;;;;;;67.00;49.25;;;;;4.33;100.00;102967.75;4890816;29;45671;-83
2022/01/12 01:29:54;;;;;;;;;66.75;53.50;;;;;4.35;100.00;102976.69;4891248;29;45363;-82
2022/01/12 01:32:21;;;;;;;;;60.75;48.50;;;;;4.39;100.00;102978.75;4890613;29;45455;-83
2022/01/12 01:34:48;;;;;;;;;66.75;52.00;;;;;4.35;100.00;102992.47;4872681;29;45526;-82
2022/01/12 01:37:14;;;;;;;;;67.75;54.50;;;;;4.33;100.00;102980.91;4887642;29;47543;-82
2022/01/12 01:39:40;;;;;;;;;59.75;49.00;;;;;4.28;100.00;102974.38;4887102;29;45837;-83
2022/01/12 01:42:16;;;;;;;;;69.00;54.00;;;;;4.31;100.00;102986.06;4886911;29;45411;-82
2022/01/12 01:55:30;;;;;;;;;67.25;53.00;;;;;4.18;100.00;102980.66;4888974;29;45469;-82
2022/01/12 02:01:02;;;;;;;;;69.75;52.50;;;;;4.06;100.00;102992.88;4886561;29;45427;-82
2022/01/12 02:03:29;;;;;;;;;58.50;48.75;;;;;4.00;100.00;102990.72;4870369;29;45476;-81
2022/01/12 02:05:56;;;;;;;;;68.75;53.75;;;;;4.01;100.00;102984.66;4869272;29;45641;-81
2022/01/12 02:08:22;;;;;;;;;65.25;53.25;;;;;4.06;100.00;102983.28;4885408;29;47742;-83
2022/01/12 02:10:56;;;;;;;;;63.00;50.00;;;;;4.14;100.00;102990.06;4869782;29;45897;-83
2022/01/12 02:13:22;;;;;;;;;58.00;47.75;;;;;4.18;100.00;103001.72;4887601;29;45436;-83
2022/01/12 02:15:49;;;;;;;;;66.75;52.25;;;;;4.18;100.00;103009.63;4886259;29;45542;-83
2022/01/12 02:18:31;;;;;;;;;67.00;53.00;;;;;4.14;100.00;103011.13;4869326;29;47069;-83
2022/01/12 02:40:34;;;;;;;;;67.75;49.25;;;;;4.21;100.00;102947.56;4888168;29;45402;-82
2022/01/12 02:43:14;;;;;;;;;65.75;52.75;;;;;4.12;100.00;102946.91;4871374;29;45674;-82
2022/01/12 02:51:35;;;;;;;;;70.00;53.75;;;;;3.95;100.00;102935.06;4811909;29;45740;-82
2022/01/12 02:54:01;;;;;;;;;72.25;57.50;;;;;3.97;100.00;102935.19;4811890;29;44987;-83
2022/01/12 02:56:32;;;;;;;;;65.00;49.00;;;;;3.98;100.00;102927.41;4813003;29;44992;-83
2022/01/12 02:58:59;;;;;;;;;71.75;55.75;;;;;3.97;100.00;102937.81;4795691;29;44952;-83
2022/01/12 03:04:00;;;;;;;;;66.00;55.25;;;;;3.88;100.00;102950.25;4814925;29;45942;-82
2022/01/12 03:06:33;;;;;;;;;66.50;51.50;;;;;3.85;100.00;102961.47;4814853;29;45443;-82
2022/01/12 03:08:59;;;;;;;;;66.50;54.00;;;;;3.85;100.00;102971.09;4816611;29;45471;-82
2022/01/12 03:11:26;;;;;;;;;77.50;57.00;;;;;3.87;100.00;102980.03;4816358;29;47094;-82
2022/01/12 03:13:52;;;;;;;;;68.00;53.75;;;;;3.84;100.00;102991.25;4815752;29;45841;-82
2022/01/12 03:16:22;;;;;;;;;47.25;41.25;;;;;3.85;100.00;102986.91;4816750;29;45547;-82
2022/01/12 03:18:50;;;;;;;;;72.25;56.00;;;;;3.91;100.00;102984.75;4816148;29;45547;-82
2022/01/12 03:21:18;;;;;;;;;67.50;54.75;;;;;4.05;100.00;102994.59;4823467;29;45593;-81
2022/01/12 03:23:44;;;;;;;;;66.00;54.75;;;;;4.02;100.00;102991.75;4892399;29;45426;-81
2022/01/12 03:26:10;;;;;;;;;73.00;57.25;;;;;4.02;100.00;102970.69;4892740;29;45903;-82
2022/01/12 03:28:38;;;;;;;;;74.00;57.75;;;;;4.13;100.00;102968.88;4891447;29;45501;-82
2022/01/12 03:36:42;;;;;;;;;67.75;55.75;;;;;4.18;100.00;102976.31;4891670;29;45881;-82
2022/01/12 03:38:58;;;;;;;;;71.50;57.00;;;;;4.25;100.00;102979.41;4884983;29;45493;-82
2022/01/12 03:41:26;;;;;;;;;70.75;54.50;;;;;4.29;100.00;102973.59;4872227;29;47075;-82
2022/01/12 03:43:58;;;;;;;;;66.25;54.00;;;;;4.33;100.00;102978.28;4888691;29;45794;-82
2022/01/12 03:46:37;;;;;;;;;72.25;56.50;;;;;4.35;100.00;102972.31;4890691;29;45502;-82
2022/01/12 03:49:04;;;;;;;;;63.50;53.00;;;;;4.33;100.00;102970.38;4890343;29;44807;-83
2022/01/12 03:51:29;;;;;;;;;67.50;54.25;;;;;4.20;100.00;102982.63;4889014;29;45245;-82
2022/01/12 03:53:55;;;;;;;;;64.50;53.75;;;;;4.20;100.00;103001.06;4886866;29;46032;-83
2022/01/12 03:56:20;;;;;;;;;73.00;56.50;;;;;4.18;100.00;103005.28;4887849;29;45357;-83
2022/01/12 03:58:46;;;;;;;;;74.50;58.00;;;;;4.24;100.00;103020.63;4888610;29;45499;-83
2022/01/12 04:01:11;;;;;;;;;71.50;55.50;;;;;4.27;100.00;103015.59;4889675;29;45199;-82
2022/01/12 04:03:41;;;;;;;;;72.25;53.00;;;;;4.26;100.00;103004.94;4873205;29;45581;-82
2022/01/12 04:08:52;;;;;;;;;71.75;57.25;;;;;4.30;100.00;103022.81;4890238;29;45415;-82
2022/01/12 04:11:17;;;;;;;;;72.50;54.50;;;;;4.27;100.00;103035.78;4887945;29;47299;-82
2022/01/12 04:13:44;;;;;;;;;72.75;57.25;;;;;4.27;100.00;103036.69;4889017;29;45458;-81
2022/01/12 04:16:12;;;;;;;;;71.50;54.25;;;;;4.27;100.00;103041.03;4874186;29;45473;-82
2022/01/12 04:18:37;;;;;;;;;68.25;53.75;;;;;4.23;100.00;103049.50;4891025;29;45424;-82
2022/01/12 04:21:06;;;;;;;;;70.25;54.50;;;;;4.21;100.00;103063.44;4873766;29;47076;-82
2022/01/12 04:23:31;;;;;;;;;69.50;54.75;;;;;4.24;100.00;103061.84;4873126;29;45697;-82
2022/01/12 04:26:00;;;;;;;;;68.00;53.25;;;;;4.25;100.00;103059.34;4890520;29;45339;-82
2022/01/12 04:28:28;;;;;;;;;70.50;53.50;;;;;4.26;100.00;103060.25;4873290;29;45822;-82
2022/01/12 04:30:55;;;;;;;;;68.00;54.75;;;;;4.19;100.00;103067.69;4889515;29;45375;-82
2022/01/12 04:33:22;;;;;;;;;66.25;51.75;;;;;4.20;100.00;103069.53;4890397;29;45395;-82
2022/01/12 04:35:52;;;;;;;;;58.75;50.00;;;;;4.14;100.00;103060.22;4890505;29;45440;-82
2022/01/12 04:38:19;;;;;;;;;76.50;57.50;;;;;4.16;100.00;103064.84;4888300;29;45740;-82
2022/01/12 04:40:46;;;;;;;;;63.25;50.50;;;;;4.09;100.00;103064.22;4890001;29;45506;-82
2022/01/12 04:43:12;;;;;;;;;64.25;50.75;;;;;4.04;100.00;103073.47;4872583;29;44858;-82
2022/01/12 04:50:55;;;;;;;;;71.50;55.75;;;;;4.05;100.00;103062.16;4775440;29;45614;-81
2022/01/12 04:53:22;;;;;;;;;64.00;51.25;;;;;4.08;100.00;103080.81;4776374;29;45589;-82
2022/01/12 04:55:48;;;;;;;;;64.50;53.50;;;;;4.01;100.00;103063.63;4760700;29;45537;-82
2022/01/12 04:58:17;;;;;;;;;66.25;54.00;;;;;4.00;100.00;103070.63;4777259;29;45408;-82
2022/01/12 05:00:44;;;;;;;;;66.00;49.00;;;;;4.00;100.00;103065.34;4774669;29;47945;-82
2022/01/12 05:13:57;;;;;;;;;62.00;48.25;;;;;4.06;100.00;103086.00;4774868;29;45585;-82
2022/01/12 05:16:24;;;;;;;;;51.25;43.25;;;;;4.05;100.00;103086.78;4775027;29;45604;-82
2022/01/12 05:18:51;;;;;;;;;68.75;50.50;;;;;4.04;100.00;103084.94;4775777;29;45521;-83
2022/01/12 05:21:18;;;;;;;;;69.00;53.25;;;;;4.00;100.00;103083.78;4760195;29;47785;-82
2022/01/12 05:23:44;;;;;;;;;64.25;49.25;;;;;3.93;100.00;103075.28;4775400;29;45497;-82
2022/01/12 05:26:10;;;;;;;;;67.25;50.75;;;;;4.03;100.00;103069.03;4857947;29;45419;-82
2022/01/12 05:28:38;;;;;;;;;66.50;52.50;;;;;4.06;100.00;103063.97;4856453;29;45424;-82
2022/01/12 05:31:04;;;;;;;;;68.75;49.00;;;;;4.02;100.00;103065.47;4886567;29;47475;-82
2022/01/12 05:34:07;;;;;;;;;64.75;50.00;;;;;4.13;100.00;103069.84;4870612;29;45911;-81
2022/01/12 05:36:33;;;;;;;;;65.25;52.25;;;;;3.98;100.00;103063.41;4886940;29;45503;-83
2022/01/12 05:39:00;;;;;;;;;63.00;50.75;;;;;4.03;100.00;103069.94;4872569;29;45951;-82
2022/01/12 05:41:25;;;;;;;;;67.75;51.75;;;;;4.01;100.00;103066.25;4871357;29;48154;-82
2022/01/12 05:43:51;;;;;;;;;60.50;48.75;;;;;4.04;100.00;103063.88;4885324;29;45386;-82
2022/01/12 05:46:21;;;;;;;;;63.75;51.25;;;;;4.06;100.00;103066.63;4868769;29;45415;-83
2022/01/12 05:51:32;;;;;;;;;67.50;50.25;;;;;3.97;100.00;103062.47;4870393;29;45892;-82
2022/01/12 05:53:58;;;;;;;;;67.75;54.75;;;;;3.90;100.00;103064.50;4870807;29;45225;-82
2022/01/12 05:56:23;;;;;;;;;61.50;49.75;;;;;3.98;100.00;103082.75;4888356;29;45388;-82
2022/01/12 05:58:50;;;;;;;;;66.75;52.50;;;;;3.97;100.00;103074.72;4889768;29;44847;-82
2022/01/12 06:01:17;;;;;;;;;63.25;48.75;;;;;4.10;100.00;103074.91;4890419;29;46432;-83
2022/01/12 06:03:43;;;;;;;;;63.50;50.75;;;;;4.07;100.00;103077.28;4875557;29;45404;-82
2022/01/12 06:06:08;;;;;;;;;65.25;52.50;;;;;4.16;100.00;103091.16;4882761;29;45373;-83
2022/01/12 06:08:33;;;;;;;;;60.50;49.75;;;;;4.17;100.00;103087.72;4889720;29;45397;-83
2022/01/12 06:10:59;;;;;;;;;63.50;50.00;;;;;4.14;100.00;103079.59;4885786;29;45474;-83
2022/01/12 06:13:26;;;;;;;;;71.25;51.25;;;;;4.24;100.00;103070.66;4868741;29;45818;-83
2022/01/12 06:15:51;;;;;;;;;67.50;52.00;;;;;4.14;100.00;103061.16;4868858;29;45456;-84
2022/01/12 06:18:17;;;;;;;;;75.00;57.75;;;;;4.20;100.00;103073.88;4873856;29;44810;-83
2022/01/12 06:20:42;;;;;;;;;65.50;52.00;;;;;4.18;100.00;103068.50;4872146;29;47454;-81
2022/01/12 06:23:08;;;;;;;;;62.50;51.50;;;;;4.17;100.00;103060.47;4889648;29;45800;-83
2022/01/12 06:26:10;;;;;;;;;71.50;54.00;;;;;4.28;100.00;103069.19;4884029;29;45406;-82
2022/01/12 06:28:39;;;;;;;;;69.75;51.00;;;;;4.02;100.00;103062.84;4885373;29;45422;-83
2022/01/12 06:31:10;;;;;;;;;65.25;50.00;;;;;4.04;100.00;103071.78;4884048;29;45559;-82
2022/01/12 06:33:39;;;;;;;;;67.00;52.00;;;;;3.98;100.00;103079.22;4853263;29;45464;-82
2022/01/12 06:36:05;;;;;;;;;67.50;53.75;;;;;3.98;100.00;103079.22;4863327;29;45996;-83
2022/01/12 06:38:31;;;;;;;;;68.25;51.00;;;;;3.99;100.00;103086.28;4870286;29;45511;-82
2022/01/12 06:40:56;;;;;;;;;67.75;52.75;;;;;3.96;100.00;103086.97;4873822;29;45481;-82
2022/01/12 06:43:22;;;;;;;;;60.25;48.75;;;;;3.82;100.00;103079.72;4870105;29;45815;-83
2022/01/12 06:45:50;;;;;;;;;63.25;50.50;;;;;3.90;100.00;103096.09;4885182;29;45679;-82
2022/01/12 06:48:17;;;;;;;;;61.00;46.25;;;;;3.87;100.00;103085.31;4875526;29;45526;-83
2022/01/12 06:50:42;;;;;;;;;66.00;51.75;;;;;3.96;100.00;103097.50;4872634;29;47176;-82
2022/01/12 06:53:08;;;;;;;;;67.50;52.75;;;;;4.04;100.00;103100.75;4891584;29;45490;-82
2022/01/12 06:55:33;;;;;;;;;61.50;49.50;;;;;4.12;100.00;103103.94;4873067;29;45596;-83
2022/01/12 06:57:59;;;;;;;;;62.50;50.75;;;;;4.20;100.00;103093.25;4889802;29;45521;-83
2022/01/12 07:00:24;;;;;;;;;65.00;51.00;;;;;4.25;100.00;103105.84;4891520;29;46537;-83
2022/01/12 07:02:50;;;;;;;;;67.75;53.25;;;;;4.31;100.00;103096.69;4892037;29;45933;-83
2022/01/12 07:05:15;;;;;;;;;63.25;52.00;;;;;4.37;100.00;103096.25;4892660;29;45359;-82
2022/01/12 07:07:48;;;;;;;;;64.75;49.75;;;;;4.44;100.00;103098.53;4892668;29;45412;-83
2022/01/12 07:10:13;;;;;;;;;63.25;52.00;;;;;4.31;100.00;103101.06;4891627;29;45493;-82
2022/01/12 07:12:39;;;;;;;;;59.75;47.25;;;;;4.31;100.00;103095.78;4892558;29;45455;-82
2022/01/12 07:15:06;;;;;;;;;62.00;49.75;;;;;4.21;100.00;103088.88;4892096;29;45843;-82
2022/01/12 07:17:31;;;;;;;;;68.00;52.75;;;;;4.27;100.00;103078.81;4893417;29;45423;-83
2022/01/12 07:19:57;;;;;;;;;71.00;54.75;;;;;4.31;100.00;103091.44;4892750;29;45273;-83
2022/01/12 07:22:22;;;;;;;;;63.00;50.00;;;;;4.34;100.00;103083.78;4892188;29;45351;-83
2022/01/12 07:31:32;;;;;;;;;69.00;55.75;;;;;4.23;100.00;103097.81;4891203;29;45673;-82
2022/01/12 07:33:58;;;;;;;;;66.25;48.75;;;;;4.27;100.00;103105.16;4876979;29;46183;-83
2022/01/12 07:36:23;;;;;;;;;74.75;53.75;;;;;4.29;100.00;103103.56;4891266;29;45626;-83
2022/01/12 07:38:59;;;;;;;;;71.75;53.25;;;;;4.30;100.00;103117.66;4892114;29;45592;-82
2022/01/12 07:41:24;;;;;;;;;65.25;54.00;;;;;4.31;100.00;103116.88;4890728;29;47093;-83
2022/01/12 07:43:52;;;;;;;;;67.50;52.50;;;;;4.36;100.00;103120.75;4890749;29;45361;-83
2022/01/12 07:46:18;;;;;;;;;69.75;54.50;;;;;4.33;100.00;103116.19;4891430;29;45477;-84
2022/01/12 07:48:43;;;;;;;;;62.00;51.00;;;;;4.31;100.00;103107.25;4892349;29;45368;-84
2022/01/12 07:51:18;;;;;;;;;64.50;52.50;;;;;4.40;100.00;103133.38;4875056;29;47223;-83
2022/01/12 07:53:45;;;;;;;;;67.00;54.00;;;;;4.41;100.00;103136.13;4891531;29;45282;-83
2022/01/12 07:56:10;;;;;;;;;63.75;52.25;;;;;4.46;100.00;103136.47;4891968;29;45417;-83
2022/01/12 07:58:36;;;;;;;;;66.75;53.25;;;;;4.44;100.00;103140.72;4892718;29;45469;-83
2022/01/12 08:01:01;;;;;;;;;68.75;52.25;;;;;4.49;100.00;103146.34;4876684;29;47225;-83
2022/01/12 08:03:27;;;;;;;;;61.25;48.50;;;;;4.50;100.00;103153.44;4892726;29;45509;-83
2022/01/12 08:05:56;;;;;;;;;65.50;53.00;;;;;4.42;100.00;103139.66;4895972;29;44877;-83
2022/01/12 08:08:22;;;;;;;;;72.00;56.75;;;;;4.34;100.00;103144.38;4874179;29;44894;-83
2022/01/12 08:14:12;;;;;;;;;58.75;46.00;;;;;4.41;100.00;103161.56;4891579;29;44902;-82
2022/01/12 08:16:37;;;;;;;;;71.00;52.00;;;;;4.26;100.00;103139.28;4875496;29;45471;-84
2022/01/12 08:19:03;;;;;;;;;54.75;44.50;;;;;4.47;100.00;103183.13;4876606;29;45371;-84
2022/01/12 08:21:33;;;;;;;;;63.50;49.50;;;;;4.28;100.00;103157.06;4878395;29;47727;-84
2022/01/12 08:23:58;;;;;;;;;65.00;50.75;;;;;4.50;100.00;103204.41;4877215;29;45583;-81
2022/01/12 08:26:28;;;;;;;;;38.50;31.50;;;;;4.59;100.00;103209.53;4874924;29;44912;-83
2022/01/12 08:28:53;;;;;;;;;70.00;51.00;;;;;4.50;100.00;103188.63;4891570;29;45441;-83
2022/01/12 08:31:29;;;;;;;;;71.50;53.75;;;;;4.63;100.00;103210.69;4892680;29;47161;-84
2022/01/12 08:33:55;;;;;;;;;57.00;46.00;;;;;4.66;100.00;103216.19;4891527;29;45380;-84
2022/01/12 08:36:20;;;;;;;;;66.50;52.00;;;;;4.70;100.00;103223.53;4885888;29;45421;-83
2022/01/12 08:38:47;;;;;;;;;59.50;47.25;;;;;4.51;100.00;103198.38;4889643;29;45832;-84
2022/01/12 08:41:14;;;;;;;;;63.25;48.50;;;;;4.32;100.00;103181.91;4891510;29;47111;-83
2022/01/12 08:43:40;;;;;;;;;63.75;51.00;;;;;4.32;100.00;103202.97;4888688;29;45601;-85
2022/01/12 08:46:06;;;;;;;;;71.50;56.75;;;;;4.22;100.00;103196.06;4873249;29;45427;-84
2022/01/12 08:48:31;;;;;;;;;63.00;49.50;;;;;4.10;100.00;103187.19;4884845;29;45612;-83
2022/01/12 08:50:58;;;;;;;;;66.50;52.00;;;;;4.09;100.00;103188.91;4891292;29;45212;-84
2022/01/12 08:53:24;;;;;;;;;65.75;53.50;;;;;4.31;100.00;103222.25;4874174;29;45410;-84
2022/01/12 08:55:50;;;;;;;;;66.25;53.25;;;;;4.39;100.00;103215.84;4873839;29;45424;-85
2022/01/12 08:58:15;;;;;;;;;62.50;48.00;;;;;4.49;100.00;103218.41;4897173;29;45582;-84
2022/01/12 09:00:47;;;;;;;;;73.00;56.50;;;;;4.52;100.00;103218.63;4898096;29;48387;-85
2022/01/12 09:03:13;;;;;;;;;66.50;50.50;;;;;4.56;100.00;103236.53;4892067;29;44812;-84
2022/01/12 09:05:39;;;;;;;;;66.25;50.25;;;;;4.65;100.00;103235.44;4890919;29;45720;-84
2022/01/12 09:08:05;;;;;;;;;69.75;53.00;;;;;4.64;100.00;103228.31;4877236;29;45436;-86
2022/01/12 09:10:34;;;;;;;;;62.25;48.50;;;;;4.72;100.00;103243.91;4892702;29;47366;-84
2022/01/12 09:13:04;;;;;;;;;75.25;53.75;;;;;4.79;100.00;103245.34;4895275;29;45430;-85
2022/01/12 09:15:29;;;;;;;;;66.00;53.75;;;;;4.76;100.00;103234.53;4893580;29;45403;-84
2022/01/12 09:17:57;;;;;;;;;65.25;49.75;;;;;4.86;100.00;103252.91;4886982;29;45798;-84
2022/01/12 09:20:23;;;;;;;;;63.25;51.50;;;;;4.86;100.00;103246.72;4879744;29;45487;-84
2022/01/12 09:22:49;;;;;;;;;61.75;49.50;;;;;4.95;100.00;103274.72;4870534;29;45527;-84
2022/01/12 09:25:16;;;;;;;;;26.00;26.00;;;;;4.98;100.00;103281.97;4875640;29;45826;-83
2022/01/12 09:27:42;;;;;;;;;59.75;49.00;;;;;4.98;100.00;103276.69;4874080;29;45465;-83
2022/01/12 09:30:11;;;;;;;;;67.00;52.75;;;;;5.06;100.00;103288.75;4886434;29;47552;-83
2022/01/12 09:32:39;;;;;;;;;64.75;50.75;;;;;5.04;100.00;103297.34;4875815;29;45514;-85
2022/01/12 09:35:06;;;;;;;;;60.00;48.00;;;;;4.89;100.00;103295.34;4888978;29;45501;-84
2022/01/12 09:37:31;;;;;;;;;57.75;45.00;;;;;4.85;100.00;103293.28;4873800;29;44965;-84
2022/01/12 09:43:22;;;;;;;;;68.75;50.75;;;;;4.94;100.00;103307.16;4912064;29;45517;-83
2022/01/12 09:45:50;;;;;;;;;66.50;48.00;;;;;5.07;100.00;103302.84;4913184;29;44848;-83
2022/01/12 09:48:19;;;;;;;;;48.75;43.75;;;;;5.19;100.00;103309.06;4897964;29;45530;-84
2022/01/12 09:50:45;;;;;;;;;60.50;47.25;;;;;5.21;100.00;103305.75;4883278;29;45974;-84
2022/01/12 09:53:17;;;;;;;;;61.75;49.50;;;;;5.24;100.00;103289.25;4868170;29;45485;-84
2022/01/12 09:55:59;;;;;;;;;61.25;47.75;;;;;5.44;100.00;103314.53;4873928;29;44935;-84
2022/01/12 09:58:35;;;;;;;;;69.50;50.00;;;;;5.22;100.00;103264.47;4892044;29;45415;-84
2022/01/12 10:01:02;;;;;;;;;54.00;46.25;;;;;5.31;100.00;103281.00;4881668;29;45574;-83
2022/01/12 10:03:40;;;;;;;;;60.25;49.00;;;;;5.43;100.00;103277.44;4872539;29;45756;-84
2022/01/12 10:06:32;;;;;;;;;54.50;47.50;;;;;5.56;100.00;103294.34;4876376;29;45871;-83
2022/01/12 10:09:06;;;;;;;;;60.25;47.50;;;;;5.51;100.00;103268.38;4878499;29;45479;-84
2022/01/12 10:11:33;;;;;;;;;64.75;47.00;;;;;5.70;100.00;103298.00;4876761;29;47124;-84
2022/01/12 10:14:03;;;;;;;;;64.75;48.50;;;;;5.93;100.00;103318.22;4879306;29;45420;-84
2022/01/12 10:17:18;;;;;;;;;;;;;;;;;;;;;
2022/01/12 10:19:44;;;;;;;;;63.75;51.00;;;;;6.18;100.00;103323.63;4887357;29;64964;-84
2022/01/12 10:22:15;;;;;;;;;63.00;52.50;;;;;6.34;100.00;103322.09;4877762;29;48200;-84
2022/01/12 10:24:51;;;;;;;;;59.75;48.25;;;;;6.27;100.00;103288.13;4893615;29;44929;-85
2022/01/12 10:27:48;;;;;;;;;61.00;48.75;;;;;6.40;100.00;103293.47;4879347;29;45340;-84
2022/01/12 10:34:10;;;;;;;;;62.25;47.75;;;;;6.57;100.00;103310.56;4893411;29;45018;-84
2022/01/12 10:36:44;;;;;;;;;56.75;48.50;;;;;6.42;100.00;103286.56;4894635;29;45633;-84
2022/01/12 10:39:16;;;;;;;;;61.50;47.75;;;;;6.35;100.00;103276.38;4879572;29;44903;-84
2022/01/12 10:42:02;;;;;;;;;55.50;47.00;;;;;6.44;100.00;103282.28;4883996;29;45582;-84
2022/01/12 10:44:34;;;;;;;;;51.25;43.75;;;;;6.65;100.00;103309.38;4889017;29;46742;-84
2022/01/12 10:47:17;;;;;;;;;61.50;48.00;;;;;6.60;100.00;103285.25;4890055;29;45447;-84
2022/01/12 10:50:00;;;;;;;;;59.00;47.00;;;;;6.66;100.00;103291.78;4883898;29;45426;-84
2022/01/12 10:52:31;;;;;;;;;55.00;46.50;;;;;6.83;100.00;103304.47;4890904;29;45451;-83
2022/01/12 10:55:03;;;;;;;;;51.50;44.25;;;;;6.83;100.00;103307.13;4887663;29;45438;-84
2022/01/12 10:57:38;;;;;;;;;60.00;50.25;;;;;6.72;98.42;103292.19;4902348;29;45538;-83
2022/01/12 11:00:10;;;;;;;;;60.00;47.25;;;;;6.58;100.00;103301.78;4891585;29;45588;-84
2022/01/12 11:02:39;;;;;;;;;60.50;47.00;;;;;6.61;100.00;103305.59;4863243;29;45425;-84
2022/01/12 11:05:09;;;;;;;;;63.75;51.50;;;;;6.70;100.00;103302.66;4880295;29;45887;-84
2022/01/12 11:07:37;;;;;;;;;73.00;52.75;;;;;6.67;100.00;103306.84;4896202;29;45087;-85
2022/01/12 11:10:19;;;;;;;;;;;;;;;;;;;;;
2022/01/12 11:12:53;;;;;;;;;57.75;48.25;;;;;6.43;100.00;103274.28;4898862;29;66042;-86
2022/01/12 11:15:21;;;;;;;;;60.75;48.25;;;;;6.59;100.00;103283.41;4881558;29;46698;-85
2022/01/12 11:17:50;;;;;;;;;64.50;52.00;;;;;6.60;100.00;103257.88;4880812;29;45456;-84
2022/01/12 11:20:24;;;;;;;;;59.00;47.25;;;;;6.78;99.38;103285.63;4899378;29;45419;-85
2022/01/12 11:23:09;;;;;;;;;65.50;52.50;;;;;6.94;100.00;103308.78;4906991;29;45491;-84
2022/01/12 11:26:15;;;;;;;;;65.50;53.00;;;;;6.76;100.00;103274.00;4876218;29;47496;-85
2022/01/12 11:28:48;;;;;;;;;60.50;51.00;;;;;6.81;100.00;103280.56;4881012;29;45065;-85
2022/01/12 11:31:18;;;;;;;;;71.75;51.50;;;;;6.95;100.00;103310.63;4878971;29;44925;-85
2022/01/12 11:33:47;;;;;;;;;64.75;53.00;;;;;6.90;99.31;103301.44;4896937;29;45375;-85
2022/01/12 11:36:28;;;;;;;;;68.00;52.75;;;;;6.95;100.00;103305.34;4897555;29;45537;-82
2022/01/12 11:39:07;;;;;;;;;68.75;53.75;;;;;6.78;100.00;103279.41;4878617;29;45449;-82
2022/01/12 11:41:45;;;;;;;;;68.00;55.25;;;;;6.92;100.00;103288.31;4883491;29;45347;-82
2022/01/12 11:44:16;;;;;;;;;59.50;44.00;;;;;6.71;100.00;103253.38;4912758;29;44910;-84
2022/01/12 11:46:55;;;;;;;;;64.75;48.50;;;;;7.05;100.00;103292.72;4895434;29;45529;-82
2022/01/12 11:49:53;;;;;;;;;61.50;51.00;;;;;7.14;100.00;103302.22;4861886;29;45545;-82
2022/01/12 11:52:28;;;;;;;;;65.25;51.75;;;;;7.00;100.00;103261.56;4813158;29;44943;-84
2022/01/12 11:55:11;;;;;;;;;59.50;49.50;;;;;6.96;100.00;103248.94;4826039;29;45372;-81
2022/01/12 11:57:38;;;;;;;;;79.25;65.25;;;;;7.03;100.00;103279.41;4829998;29;45409;-82
2022/01/12 12:00:13;;;;;;;;;63.25;50.00;;;;;7.26;100.00;103286.28;4821074;29;44863;-83
2022/01/12 12:02:41;;;;;;;;;68.25;55.25;;;;;7.03;98.64;103259.94;4837240;29;45461;-84
2022/01/12 12:05:38;;;;;;;;;65.25;51.25;;;;;7.14;100.00;103288.09;4823203;29;45535;-83
2022/01/12 12:08:04;;;;;;;;;64.50;48.25;;;;;7.10;100.00;103276.38;4806399;29;47357;-82
2022/01/12 12:10:39;;;;;;;;;66.00;53.25;;;;;7.27;100.00;103290.78;4820924;29;45355;-82
2022/01/12 12:16:26;;;;;;;;;67.25;55.25;;;;;7.23;100.00;103283.44;4841566;29;45005;-81
2022/01/12 12:18:52;;;;;;;;;62.25;49.50;;;;;7.25;100.00;103279.16;4812161;29;47735;-82
2022/01/12 12:21:18;;;;;;;;;68.50;51.50;;;;;7.30;100.00;103272.44;4823914;29;45727;-82
2022/01/12 12:23:43;;;;;;;;;64.00;52.00;;;;;7.38;100.00;103273.88;4890991;29;45716;-83
2022/01/12 12:26:12;;;;;;;;;67.75;51.50;;;;;7.44;100.00;103264.53;4873086;29;45540;-83
2022/01/12 12:28:38;;;;;;;;;73.75;53.75;;;;;7.49;100.00;103264.00;4902009;29;45685;-83
2022/01/12 12:31:05;;;;;;;;;61.75;50.75;;;;;7.52;100.00;103250.06;4892933;29;45439;-86
2022/01/12 12:33:31;;;;;;;;;63.00;50.00;;;;;7.52;99.99;103252.72;4873871;29;44975;-82
2022/01/12 12:35:56;;;;;;;;;70.25;54.00;;;;;7.52;100.00;103252.72;4859693;29;45009;-82
2022/01/12 12:38:26;;;;;;;;;60.50;49.00;;;;;7.63;100.00;103251.69;4889698;29;45461;-86
2022/01/12 12:40:55;;;;;;;;;60.75;50.00;;;;;7.63;100.00;103251.69;4878963;29;45751;-84
2022/01/12 12:43:28;;;;;;;;;70.00;52.00;;;;;7.73;99.79;103248.81;4881781;29;45456;-87
2022/01/12 12:45:56;;;;;;;;;64.75;51.00;;;;;7.74;100.00;103237.44;4873274;29;45368;-87
2022/01/12 12:48:31;;;;;;;;;65.75;51.25;;;;;7.86;100.00;103236.38;4878036;29;47216;-86
2022/01/12 12:51:14;;;;;;;;;69.50;55.00;;;;;7.89;99.91;103220.69;4876713;29;45518;-87
2022/01/12 12:53:46;;;;;;;;;59.25;46.00;;;;;7.97;100.00;103222.09;4895521;29;45433;-86
2022/01/12 12:56:17;;;;;;;;;72.00;57.50;;;;;7.83;99.86;103186.78;4879140;29;45433;-86
2022/01/12 12:58:53;;;;;;;;;72.50;56.25;;;;;8.09;100.00;103206.09;4893989;29;45463;-85
2022/01/12 13:04:41;;;;;;;;;65.00;53.00;;;;;8.10;99.31;103214.13;4900662;29;45226;-88
2022/01/12 13:07:19;;;;;;;;;63.50;49.50;;;;;8.02;99.29;103172.97;4897375;29;45628;-86
2022/01/12 13:09:48;;;;;;;;;67.75;55.00;;;;;8.18;99.52;103207.59;4884905;29;46892;-87